Mediterranean Sea — WDG229 — position and weather

sailwx.info

Track history (hours):
 
Tides and Currents Weather Stations Pressure Air Temp Water Temp Dewpoint Dewpoint Depression Visibility Wind Speed Wind Dir Waves Ship Positions

Mediterranean Sea

Last reported at 2016-Apr-30 18:22 UTC. Time now 2016-Apr-30 20:40 UTC.
Position N 40°49' W 073°58'.

Length 34 m; draft 6 m.

Type: . MMSI: 367010390.

Date/timePositionNaut miles runAvg speedWind from/ knotsBaromVisibWave heightAir tempDewpointWater temp
2016-Apr-30 18:22N 40°49' W 073°58'7 8.7
2016-Apr-30 17:33N 40°43' W 074°01'3 3.1
2016-Apr-30 16:33N 40°40' W 074°03'7 0.3
2016-Apr-29 18:29N 40°47' W 073°60'8 8.6
2016-Apr-29 17:33N 40°39' W 074°03'0 0.2
2016-Apr-29 16:32N 40°39' W 074°03'0 0.0
2016-Apr-29 15:32N 40°39' W 074°03'0 0.0
2016-Apr-29 14:32N 40°39' W 074°03'0 0.1
2016-Apr-29 13:32N 40°39' W 074°03'0 0.0
2016-Apr-29 12:32N 40°39' W 074°03'0 0.0
2016-Apr-29 11:32N 40°39' W 074°03'0 0.0
2016-Apr-29 10:32N 40°39' W 074°03'0 0.0
2016-Apr-29 09:32N 40°39' W 074°03'0 0.0
2016-Apr-29 08:32N 40°39' W 074°03'0 0.1
2016-Apr-29 07:32N 40°39' W 074°03'0 0.1
2016-Apr-29 06:29N 40°39' W 074°03'0 0.0
2016-Apr-29 05:32N 40°39' W 074°03'0 0.0
2016-Apr-29 04:32N 40°39' W 074°03'0 0.0
2016-Apr-29 03:29N 40°39' W 074°03'0 0.1
2016-Apr-29 02:32N 40°39' W 074°03'0 0.1
2016-Apr-29 01:32N 40°39' W 074°03'0 0.0
2016-Apr-29 00:32N 40°39' W 074°03'0 0.0
2016-Apr-28 23:32N 40°39' W 074°03'0 0.1
2016-Apr-28 22:32N 40°39' W 074°03'0 0.1
2016-Apr-28 21:32N 40°39' W 074°03'0 0.1
2016-Apr-28 20:32N 40°39' W 074°03'3 2.8
2016-Apr-28 19:34N 40°39' W 074°06'3 1.2
2016-Apr-28 17:16N 40°39' W 074°10'5 6.5
2016-Apr-28 16:33N 40°39' W 074°04'1 0.7
2016-Apr-28 15:32N 40°39' W 074°03'0 0.1
2016-Apr-28 14:14N 40°39' W 074°03'0 0.0
2016-Apr-28 13:29N 40°39' W 074°03'0 0.0
2016-Apr-28 12:28N 40°39' W 074°03'0 0.0
2016-Apr-28 11:32N 40°39' W 074°03'0 0.0
2016-Apr-28 10:32N 40°39' W 074°03'0 0.0
2016-Apr-28 09:31N 40°39' W 074°03'0 0.0
2016-Apr-28 08:25N 40°39' W 074°03'0 0.1
2016-Apr-28 07:32N 40°39' W 074°03'0 0.1
2016-Apr-28 06:31N 40°39' W 074°03'0 0.0
2016-Apr-28 05:32N 40°39' W 074°03'0 0.0
2016-Apr-28 04:32N 40°39' W 074°03'0 0.0
2016-Apr-28 03:32N 40°39' W 074°03'0 0.0
2016-Apr-28 02:32N 40°39' W 074°03'0 0.0
2016-Apr-28 01:32N 40°39' W 074°03'1 1.4
2016-Apr-28 00:33N 40°40' W 074°04'0 0.0
2016-Apr-27 23:32N 40°40' W 074°04'0 0.0
2016-Apr-27 22:32N 40°40' W 074°04'0 0.0
2016-Apr-27 21:32N 40°40' W 074°04'0 0.0
2016-Apr-27 20:32N 40°40' W 074°04'0 0.0
2016-Apr-27 19:32N 40°40' W 074°04'0 0.0
2016-Apr-27 18:32N 40°40' W 074°04'0 0.0
2016-Apr-27 17:32N 40°40' W 074°04'0 0.0
2016-Apr-27 16:32N 40°40' W 074°04'0 0.0
2016-Apr-27 15:32N 40°40' W 074°04'0 0.0
2016-Apr-27 14:32N 40°40' W 074°04'0 0.0
2016-Apr-27 11:32N 40°40' W 074°04'0 0.0
2016-Apr-27 10:32N 40°40' W 074°04'0 0.0
2016-Apr-27 09:32N 40°40' W 074°04'0 0.0
2016-Apr-27 08:32N 40°40' W 074°04'0 0.0
2016-Apr-27 07:32N 40°40' W 074°04'0 0.0
2016-Apr-27 06:32N 40°40' W 074°04'2 1.8
2016-Apr-27 05:34N 40°39' W 074°06'0 0.3
2016-Apr-27 04:33N 40°39' W 074°07'0 0.0
2016-Apr-27 03:33N 40°39' W 074°07'0 0.0
2016-Apr-27 02:33N 40°39' W 074°07'0 0.0
2016-Apr-27 01:33N 40°39' W 074°07'3 2.5
2016-Apr-27 00:33N 40°39' W 074°10'2 2.0
2016-Apr-26 23:33N 40°38' W 074°12'4 3.9
2016-Apr-26 22:33N 40°39' W 074°07'2 2.4
2016-Apr-26 21:32N 40°40' W 074°04'0 0.0
2016-Apr-26 20:32N 40°40' W 074°04'0 0.0
2016-Apr-26 19:33N 40°40' W 074°04'3 3.1
2016-Apr-26 18:33N 40°42' W 074°02'6 1.8
2016-Apr-26 15:21N 40°48' W 073°59'0 0.1
2016-Apr-26 14:21N 40°48' W 073°59'0 0.1
2016-Apr-26 13:33N 40°48' W 073°59'0 0.0
2016-Apr-26 12:15N 40°48' W 073°59'0 0.0
2016-Apr-26 09:06N 40°48' W 073°59'0 0.0
2016-Apr-26 08:33N 40°48' W 073°59'0 0.1
2016-Apr-26 07:21N 40°48' W 073°59'0 0.1
2016-Apr-26 05:16N 40°48' W 073°59'0 0.0
2016-Apr-26 01:32N 40°48' W 073°59'0 0.2
2016-Apr-26 00:32N 40°48' W 073°59'0 0.0
2016-Apr-25 23:32N 40°48' W 073°59'0 0.0
2016-Apr-25 22:29N 40°48' W 073°59'0 0.0
2016-Apr-25 21:29N 40°48' W 073°59'0 0.0
2016-Apr-25 20:32N 40°48' W 073°59'0 0.0
2016-Apr-25 19:20N 40°48' W 073°59'0 0.1
2016-Apr-25 18:32N 40°48' W 073°59'0 0.1
2016-Apr-25 15:17N 40°48' W 073°59'0 0.1
2016-Apr-25 14:32N 40°48' W 073°59'0 0.2
2016-Apr-25 13:33N 40°48' W 073°59'0 0.0
2016-Apr-25 08:29N 40°48' W 073°59'0 0.1
2016-Apr-25 06:11N 40°48' W 073°59'0 0.0
2016-Apr-24 23:17N 40°48' W 073°59'0 0.0
2016-Apr-24 13:20N 40°48' W 073°59'0 0.0
2016-Apr-24 00:32N 40°48' W 073°59'0 0.0
2016-Apr-23 19:26N 40°48' W 073°59'0 0.0
2016-Apr-23 12:32N 40°48' W 073°59'0 0.1
2016-Apr-23 11:29N 40°48' W 073°59'0 0.0
2016-Apr-23 09:11N 40°48' W 073°59'0 0.0
2016-Apr-22 11:32N 40°48' W 073°59'0 0.1
2016-Apr-22 08:29N 40°48' W 073°59'0 0.0
2016-Apr-21 22:32N 40°48' W 073°59'0 0.0
2016-Apr-21 18:23N 40°48' W 073°59'0 0.1
2016-Apr-21 17:08N 40°48' W 073°59'0 0.1
2016-Apr-21 16:29N 40°48' W 073°59'0 0.0
2016-Apr-21 14:17N 40°48' W 073°59'0 0.0
2016-Apr-21 12:26N 40°48' W 073°59'0 0.1
2016-Apr-21 10:32N 40°48' W 073°59'0 0.1
2016-Apr-21 08:26N 40°48' W 073°59'  
Track history (hours):
 
Tides and Currents Weather Stations Pressure Air Temp Water Temp Dewpoint Dewpoint Depression Visibility Wind Speed Wind Dir Waves Ship Positions

Mediterranean Sea

Last reported at 2016-Apr-30 18:22 UTC. Time now 2016-Apr-30 20:40 UTC.
Position N 40°49' W 073°58'.

Length 34 m; draft 6 m.

Type: . MMSI: 367010390.

Date/timePositionNaut miles runAvg speedWind from/ knotsBaromVisibWave heightAir tempDewpointWater temp
2016-Apr-30 18:22N 40°49' W 073°58'7 8.7
2016-Apr-30 17:33N 40°43' W 074°01'3 3.1
2016-Apr-30 16:33N 40°40' W 074°03'7 0.3
2016-Apr-29 18:29N 40°47' W 073°60'8 8.6
2016-Apr-29 17:33N 40°39' W 074°03'0 0.2
2016-Apr-29 16:32N 40°39' W 074°03'0 0.0
2016-Apr-29 15:32N 40°39' W 074°03'0 0.0
2016-Apr-29 14:32N 40°39' W 074°03'0 0.1
2016-Apr-29 13:32N 40°39' W 074°03'0 0.0
2016-Apr-29 12:32N 40°39' W 074°03'0 0.0
2016-Apr-29 11:32N 40°39' W 074°03'0 0.0
2016-Apr-29 10:32N 40°39' W 074°03'0 0.0
2016-Apr-29 09:32N 40°39' W 074°03'0 0.0
2016-Apr-29 08:32N 40°39' W 074°03'0 0.1
2016-Apr-29 07:32N 40°39' W 074°03'0 0.1
2016-Apr-29 06:29N 40°39' W 074°03'0 0.0
2016-Apr-29 05:32N 40°39' W 074°03'0 0.0
2016-Apr-29 04:32N 40°39' W 074°03'0 0.0
2016-Apr-29 03:29N 40°39' W 074°03'0 0.1
2016-Apr-29 02:32N 40°39' W 074°03'0 0.1
2016-Apr-29 01:32N 40°39' W 074°03'0 0.0
2016-Apr-29 00:32N 40°39' W 074°03'0 0.0
2016-Apr-28 23:32N 40°39' W 074°03'0 0.1
2016-Apr-28 22:32N 40°39' W 074°03'0 0.1
2016-Apr-28 21:32N 40°39' W 074°03'0 0.1
2016-Apr-28 20:32N 40°39' W 074°03'3 2.8
2016-Apr-28 19:34N 40°39' W 074°06'3 1.2
2016-Apr-28 17:16N 40°39' W 074°10'5 6.5
2016-Apr-28 16:33N 40°39' W 074°04'1 0.7
2016-Apr-28 15:32N 40°39' W 074°03'0 0.1
2016-Apr-28 14:14N 40°39' W 074°03'0 0.0
2016-Apr-28 13:29N 40°39' W 074°03'0 0.0
2016-Apr-28 12:28N 40°39' W 074°03'0 0.0
2016-Apr-28 11:32N 40°39' W 074°03'0 0.0
2016-Apr-28 10:32N 40°39' W 074°03'0 0.0
2016-Apr-28 09:31N 40°39' W 074°03'0 0.0
2016-Apr-28 08:25N 40°39' W 074°03'0 0.1
2016-Apr-28 07:32N 40°39' W 074°03'0 0.1
2016-Apr-28 06:31N 40°39' W 074°03'0 0.0
2016-Apr-28 05:32N 40°39' W 074°03'0 0.0
2016-Apr-28 04:32N 40°39' W 074°03'0 0.0
2016-Apr-28 03:32N 40°39' W 074°03'0 0.0
2016-Apr-28 02:32N 40°39' W 074°03'0 0.0
2016-Apr-28 01:32N 40°39' W 074°03'1 1.4
2016-Apr-28 00:33N 40°40' W 074°04'0 0.0
2016-Apr-27 23:32N 40°40' W 074°04'0 0.0
2016-Apr-27 22:32N 40°40' W 074°04'0 0.0
2016-Apr-27 21:32N 40°40' W 074°04'0 0.0
2016-Apr-27 20:32N 40°40' W 074°04'0 0.0
2016-Apr-27 19:32N 40°40' W 074°04'0 0.0
2016-Apr-27 18:32N 40°40' W 074°04'0 0.0
2016-Apr-27 17:32N 40°40' W 074°04'0 0.0
2016-Apr-27 16:32N 40°40' W 074°04'0 0.0
2016-Apr-27 15:32N 40°40' W 074°04'0 0.0
2016-Apr-27 14:32N 40°40' W 074°04'0 0.0
2016-Apr-27 11:32N 40°40' W 074°04'0 0.0
2016-Apr-27 10:32N 40°40' W 074°04'0 0.0
2016-Apr-27 09:32N 40°40' W 074°04'0 0.0
2016-Apr-27 08:32N 40°40' W 074°04'0 0.0
2016-Apr-27 07:32N 40°40' W 074°04'0 0.0
2016-Apr-27 06:32N 40°40' W 074°04'2 1.8
2016-Apr-27 05:34N 40°39' W 074°06'0 0.3
2016-Apr-27 04:33N 40°39' W 074°07'0 0.0
2016-Apr-27 03:33N 40°39' W 074°07'0 0.0
2016-Apr-27 02:33N 40°39' W 074°07'0 0.0
2016-Apr-27 01:33N 40°39' W 074°07'3 2.5
2016-Apr-27 00:33N 40°39' W 074°10'2 2.0
2016-Apr-26 23:33N 40°38' W 074°12'4 3.9
2016-Apr-26 22:33N 40°39' W 074°07'2 2.4
2016-Apr-26 21:32N 40°40' W 074°04'0 0.0
2016-Apr-26 20:32N 40°40' W 074°04'0 0.0
2016-Apr-26 19:33N 40°40' W 074°04'3 3.1
2016-Apr-26 18:33N 40°42' W 074°02'6 1.8
2016-Apr-26 15:21N 40°48' W 073°59'0 0.1
2016-Apr-26 14:21N 40°48' W 073°59'0 0.1
2016-Apr-26 13:33N 40°48' W 073°59'0 0.0
2016-Apr-26 12:15N 40°48' W 073°59'0 0.0
2016-Apr-26 09:06N 40°48' W 073°59'0 0.0
2016-Apr-26 08:33N 40°48' W 073°59'0 0.1
2016-Apr-26 07:21N 40°48' W 073°59'0 0.1
2016-Apr-26 05:16N 40°48' W 073°59'0 0.0
2016-Apr-26 01:32N 40°48' W 073°59'0 0.2
2016-Apr-26 00:32N 40°48' W 073°59'0 0.0
2016-Apr-25 23:32N 40°48' W 073°59'0 0.0
2016-Apr-25 22:29N 40°48' W 073°59'0 0.0
2016-Apr-25 21:29N 40°48' W 073°59'0 0.0
2016-Apr-25 20:32N 40°48' W 073°59'0 0.0
2016-Apr-25 19:20N 40°48' W 073°59'0 0.1
2016-Apr-25 18:32N 40°48' W 073°59'0 0.1
2016-Apr-25 15:17N 40°48' W 073°59'0 0.1
2016-Apr-25 14:32N 40°48' W 073°59'0 0.2
2016-Apr-25 13:33N 40°48' W 073°59'0 0.0
2016-Apr-25 08:29N 40°48' W 073°59'0 0.1
2016-Apr-25 06:11N 40°48' W 073°59'0 0.0
2016-Apr-24 23:17N 40°48' W 073°59'0 0.0
2016-Apr-24 13:20N 40°48' W 073°59'0 0.0
2016-Apr-24 00:32N 40°48' W 073°59'0 0.0
2016-Apr-23 19:26N 40°48' W 073°59'0 0.0
2016-Apr-23 12:32N 40°48' W 073°59'0 0.1
2016-Apr-23 11:29N 40°48' W 073°59'0 0.0
2016-Apr-23 09:11N 40°48' W 073°59'0 0.0
2016-Apr-22 11:32N 40°48' W 073°59'0 0.1
2016-Apr-22 08:29N 40°48' W 073°59'0 0.0
2016-Apr-21 22:32N 40°48' W 073°59'0 0.0
2016-Apr-21 18:23N 40°48' W 073°59'0 0.1
2016-Apr-21 17:08N 40°48' W 073°59'0 0.1
2016-Apr-21 16:29N 40°48' W 073°59'0 0.0
2016-Apr-21 14:17N 40°48' W 073°59'0 0.0
2016-Apr-21 12:26N 40°48' W 073°59'0 0.1
2016-Apr-21 10:32N 40°48' W 073°59'0 0.1
2016-Apr-21 08:26N 40°48' W 073°59'  

Dump ship's entire track history